sensor_id;sensor_type;location;lat;lon;timestamp;P1;durP1;ratioP1;P2;durP2;ratioP2
26407;SDS011;14583;43.604;1.364;2024-02-26T00:02:22;14.05;;;5.32;;
26407;SDS011;14583;43.604;1.364;2024-02-26T00:04:48;14.38;;;4.43;;
26407;SDS011;14583;43.604;1.364;2024-02-26T00:07:15;12.68;;;5.13;;
26407;SDS011;14583;43.604;1.364;2024-02-26T00:09:40;15.57;;;5.20;;
26407;SDS011;14583;43.604;1.364;2024-02-26T00:12:06;17.60;;;4.78;;
26407;SDS011;14583;43.604;1.364;2024-02-26T00:14:32;12.43;;;5.03;;
26407;SDS011;14583;43.604;1.364;2024-02-26T00:16:57;17.25;;;4.80;;
26407;SDS011;14583;43.604;1.364;2024-02-26T00:19:23;13.25;;;4.85;;
26407;SDS011;14583;43.604;1.364;2024-02-26T00:21:49;14.68;;;5.22;;
26407;SDS011;14583;43.604;1.364;2024-02-26T00:24:15;19.30;;;4.88;;
26407;SDS011;14583;43.604;1.364;2024-02-26T00:26:41;19.45;;;4.80;;
26407;SDS011;14583;43.604;1.364;2024-02-26T00:29:06;15.20;;;4.88;;
26407;SDS011;14583;43.604;1.364;2024-02-26T00:31:32;20.48;;;5.28;;
26407;SDS011;14583;43.604;1.364;2024-02-26T00:33:58;18.48;;;5.70;;
26407;SDS011;14583;43.604;1.364;2024-02-26T00:36:24;14.07;;;4.70;;
26407;SDS011;14583;43.604;1.364;2024-02-26T00:38:50;18.98;;;4.53;;
26407;SDS011;14583;43.604;1.364;2024-02-26T00:41:19;14.27;;;4.18;;
26407;SDS011;14583;43.604;1.364;2024-02-26T00:43:45;16.92;;;4.93;;
26407;SDS011;14583;43.604;1.364;2024-02-26T00:46:11;15.98;;;3.92;;
26407;SDS011;14583;43.604;1.364;2024-02-26T00:48:37;25.33;;;4.85;;
26407;SDS011;14583;43.604;1.364;2024-02-26T00:51:03;21.23;;;4.50;;
26407;SDS011;14583;43.604;1.364;2024-02-26T00:53:30;22.27;;;3.70;;
26407;SDS011;14583;43.604;1.364;2024-02-26T00:55:56;17.05;;;4.20;;
26407;SDS011;14583;43.604;1.364;2024-02-26T00:58:24;21.60;;;5.07;;
26407;SDS011;14583;43.604;1.364;2024-02-26T01:00:50;17.95;;;4.38;;
26407;SDS011;14583;43.604;1.364;2024-02-26T01:03:19;20.25;;;4.75;;
26407;SDS011;14583;43.604;1.364;2024-02-26T01:05:45;21.15;;;5.00;;
26407;SDS011;14583;43.604;1.364;2024-02-26T01:08:11;23.33;;;5.30;;
26407;SDS011;14583;43.604;1.364;2024-02-26T01:10:36;17.63;;;5.10;;
26407;SDS011;14583;43.604;1.364;2024-02-26T01:13:02;17.52;;;4.55;;
26407;SDS011;14583;43.604;1.364;2024-02-26T01:15:28;17.48;;;4.30;;
26407;SDS011;14583;43.604;1.364;2024-02-26T01:17:53;15.82;;;4.15;;
26407;SDS011;14583;43.604;1.364;2024-02-26T01:20:19;15.45;;;4.45;;
26407;SDS011;14583;43.604;1.364;2024-02-26T01:22:45;19.75;;;4.68;;
26407;SDS011;14583;43.604;1.364;2024-02-26T01:25:11;19.55;;;4.80;;
26407;SDS011;14583;43.604;1.364;2024-02-26T01:27:38;16.95;;;3.90;;
26407;SDS011;14583;43.604;1.364;2024-02-26T01:30:04;19.30;;;4.00;;
26407;SDS011;14583;43.604;1.364;2024-02-26T01:32:31;10.57;;;3.95;;
26407;SDS011;14583;43.604;1.364;2024-02-26T01:34:57;21.10;;;4.82;;
26407;SDS011;14583;43.604;1.364;2024-02-26T01:37:23;25.27;;;4.47;;
26407;SDS011;14583;43.604;1.364;2024-02-26T01:39:49;17.92;;;4.00;;
26407;SDS011;14583;43.604;1.364;2024-02-26T01:42:14;14.27;;;3.88;;
26407;SDS011;14583;43.604;1.364;2024-02-26T01:44:40;16.95;;;4.45;;
26407;SDS011;14583;43.604;1.364;2024-02-26T01:47:07;17.63;;;4.45;;
26407;SDS011;14583;43.604;1.364;2024-02-26T01:49:35;22.75;;;4.43;;
26407;SDS011;14583;43.604;1.364;2024-02-26T01:52:01;17.88;;;4.43;;
26407;SDS011;14583;43.604;1.364;2024-02-26T01:54:29;18.85;;;3.80;;
26407;SDS011;14583;43.604;1.364;2024-02-26T01:56:56;17.92;;;4.30;;
26407;SDS011;14583;43.604;1.364;2024-02-26T01:59:22;18.42;;;4.05;;
26407;SDS011;14583;43.604;1.364;2024-02-26T02:01:52;20.95;;;4.68;;
26407;SDS011;14583;43.604;1.364;2024-02-26T02:04:20;17.63;;;4.30;;
26407;SDS011;14583;43.604;1.364;2024-02-26T02:06:48;20.05;;;4.25;;
26407;SDS011;14583;43.604;1.364;2024-02-26T02:09:13;18.50;;;5.22;;
26407;SDS011;14583;43.604;1.364;2024-02-26T02:11:39;17.20;;;5.07;;
26407;SDS011;14583;43.604;1.364;2024-02-26T02:14:06;22.08;;;5.18;;
26407;SDS011;14583;43.604;1.364;2024-02-26T02:16:31;15.65;;;4.40;;
26407;SDS011;14583;43.604;1.364;2024-02-26T02:18:58;20.50;;;4.60;;
26407;SDS011;14583;43.604;1.364;2024-02-26T02:21:23;27.70;;;5.60;;
26407;SDS011;14583;43.604;1.364;2024-02-26T02:23:49;19.60;;;4.75;;
26407;SDS011;14583;43.604;1.364;2024-02-26T02:26:15;18.45;;;4.40;;
26407;SDS011;14583;43.604;1.364;2024-02-26T02:28:42;22.65;;;4.88;;
26407;SDS011;14583;43.604;1.364;2024-02-26T02:31:08;24.13;;;4.63;;
26407;SDS011;14583;43.604;1.364;2024-02-26T02:33:34;23.73;;;4.45;;
26407;SDS011;14583;43.604;1.364;2024-02-26T02:36:00;22.08;;;5.10;;
26407;SDS011;14583;43.604;1.364;2024-02-26T02:38:26;16.38;;;4.40;;
26407;SDS011;14583;43.604;1.364;2024-02-26T02:40:52;24.02;;;4.68;;
26407;SDS011;14583;43.604;1.364;2024-02-26T02:43:18;25.63;;;5.10;;
26407;SDS011;14583;43.604;1.364;2024-02-26T02:45:44;17.58;;;4.68;;
26407;SDS011;14583;43.604;1.364;2024-02-26T02:48:10;20.33;;;4.00;;
26407;SDS011;14583;43.604;1.364;2024-02-26T02:50:36;21.02;;;4.10;;
26407;SDS011;14583;43.604;1.364;2024-02-26T02:53:02;20.65;;;4.10;;
26407;SDS011;14583;43.604;1.364;2024-02-26T02:55:28;20.80;;;4.57;;
26407;SDS011;14583;43.604;1.364;2024-02-26T02:57:54;24.95;;;4.38;;
26407;SDS011;14583;43.604;1.364;2024-02-26T03:00:19;20.30;;;4.82;;
26407;SDS011;14583;43.604;1.364;2024-02-26T03:02:48;28.52;;;4.70;;
26407;SDS011;14583;43.604;1.364;2024-02-26T03:05:14;23.70;;;4.63;;
26407;SDS011;14583;43.604;1.364;2024-02-26T03:07:39;21.83;;;3.88;;
26407;SDS011;14583;43.604;1.364;2024-02-26T03:10:05;23.88;;;4.60;;
26407;SDS011;14583;43.604;1.364;2024-02-26T03:12:32;19.80;;;4.00;;
26407;SDS011;14583;43.604;1.364;2024-02-26T03:14:58;21.00;;;4.18;;
26407;SDS011;14583;43.604;1.364;2024-02-26T03:17:27;23.77;;;4.55;;
26407;SDS011;14583;43.604;1.364;2024-02-26T03:19:53;14.43;;;3.25;;
26407;SDS011;14583;43.604;1.364;2024-02-26T03:22:20;18.95;;;3.92;;
26407;SDS011;14583;43.604;1.364;2024-02-26T03:24:46;26.75;;;4.40;;
26407;SDS011;14583;43.604;1.364;2024-02-26T03:27:12;18.10;;;4.00;;
26407;SDS011;14583;43.604;1.364;2024-02-26T03:29:38;18.38;;;3.30;;
26407;SDS011;14583;43.604;1.364;2024-02-26T03:32:04;23.23;;;3.67;;
26407;SDS011;14583;43.604;1.364;2024-02-26T03:34:31;16.48;;;3.70;;
26407;SDS011;14583;43.604;1.364;2024-02-26T03:36:59;14.98;;;3.22;;
26407;SDS011;14583;43.604;1.364;2024-02-26T03:39:25;12.05;;;2.50;;
26407;SDS011;14583;43.604;1.364;2024-02-26T03:41:51;14.57;;;3.60;;
26407;SDS011;14583;43.604;1.364;2024-02-26T03:44:17;17.92;;;3.85;;
26407;SDS011;14583;43.604;1.364;2024-02-26T03:46:43;13.90;;;3.83;;
26407;SDS011;14583;43.604;1.364;2024-02-26T03:49:09;20.27;;;3.72;;
26407;SDS011;14583;43.604;1.364;2024-02-26T03:51:34;16.98;;;3.33;;
26407;SDS011;14583;43.604;1.364;2024-02-26T03:54:00;16.52;;;3.35;;
26407;SDS011;14583;43.604;1.364;2024-02-26T03:56:26;20.55;;;3.15;;
26407;SDS011;14583;43.604;1.364;2024-02-26T03:58:53;19.08;;;3.25;;
26407;SDS011;14583;43.604;1.364;2024-02-26T04:01:19;22.95;;;3.15;;
26407;SDS011;14583;43.604;1.364;2024-02-26T04:03:44;13.52;;;2.70;;
26407;SDS011;14583;43.604;1.364;2024-02-26T04:06:11;10.18;;;2.55;;
26407;SDS011;14583;43.604;1.364;2024-02-26T04:08:39;10.57;;;2.58;;
26407;SDS011;14583;43.604;1.364;2024-02-26T04:11:06;13.00;;;2.55;;
26407;SDS011;14583;43.604;1.364;2024-02-26T04:13:35;13.63;;;3.00;;
26407;SDS011;14583;43.604;1.364;2024-02-26T04:16:03;12.25;;;2.20;;
26407;SDS011;14583;43.604;1.364;2024-02-26T04:18:29;20.70;;;3.38;;
26407;SDS011;14583;43.604;1.364;2024-02-26T04:20:55;10.98;;;2.47;;
26407;SDS011;14583;43.604;1.364;2024-02-26T04:23:21;14.73;;;2.90;;
26407;SDS011;14583;43.604;1.364;2024-02-26T04:25:47;10.75;;;2.47;;
26407;SDS011;14583;43.604;1.364;2024-02-26T04:28:15;14.43;;;2.45;;
26407;SDS011;14583;43.604;1.364;2024-02-26T04:30:41;11.60;;;2.10;;
26407;SDS011;14583;43.604;1.364;2024-02-26T04:33:07;12.45;;;2.30;;
26407;SDS011;14583;43.604;1.364;2024-02-26T04:35:32;13.48;;;2.92;;
26407;SDS011;14583;43.604;1.364;2024-02-26T04:38:00;12.80;;;3.03;;
26407;SDS011;14583;43.604;1.364;2024-02-26T04:40:26;6.05;;;1.80;;
26407;SDS011;14583;43.604;1.364;2024-02-26T04:42:53;8.73;;;2.10;;
26407;SDS011;14583;43.604;1.364;2024-02-26T04:45:19;20.38;;;2.58;;
26407;SDS011;14583;43.604;1.364;2024-02-26T04:47:44;11.45;;;2.55;;
26407;SDS011;14583;43.604;1.364;2024-02-26T04:50:11;9.85;;;1.95;;
26407;SDS011;14583;43.604;1.364;2024-02-26T04:52:37;9.93;;;1.98;;
26407;SDS011;14583;43.604;1.364;2024-02-26T04:55:03;8.73;;;1.77;;
26407;SDS011;14583;43.604;1.364;2024-02-26T04:57:29;10.93;;;2.08;;
26407;SDS011;14583;43.604;1.364;2024-02-26T04:59:54;12.80;;;2.38;;
26407;SDS011;14583;43.604;1.364;2024-02-26T05:02:20;14.82;;;1.95;;
26407;SDS011;14583;43.604;1.364;2024-02-26T05:04:46;11.50;;;2.28;;
26407;SDS011;14583;43.604;1.364;2024-02-26T05:07:12;8.45;;;1.60;;
26407;SDS011;14583;43.604;1.364;2024-02-26T05:09:37;8.68;;;2.05;;
26407;SDS011;14583;43.604;1.364;2024-02-26T05:12:03;7.45;;;1.83;;
26407;SDS011;14583;43.604;1.364;2024-02-26T05:14:29;8.75;;;1.88;;
26407;SDS011;14583;43.604;1.364;2024-02-26T05:16:55;8.82;;;2.22;;
26407;SDS011;14583;43.604;1.364;2024-02-26T05:19:21;7.63;;;1.90;;
26407;SDS011;14583;43.604;1.364;2024-02-26T05:21:46;8.02;;;1.85;;
26407;SDS011;14583;43.604;1.364;2024-02-26T05:24:14;7.32;;;1.83;;
26407;SDS011;14583;43.604;1.364;2024-02-26T05:26:42;12.65;;;1.88;;
26407;SDS011;14583;43.604;1.364;2024-02-26T05:29:08;4.93;;;1.70;;
26407;SDS011;14583;43.604;1.364;2024-02-26T05:31:34;8.85;;;1.80;;
26407;SDS011;14583;43.604;1.364;2024-02-26T05:33:59;6.88;;;2.15;;
26407;SDS011;14583;43.604;1.364;2024-02-26T05:36:25;7.93;;;1.67;;
26407;SDS011;14583;43.604;1.364;2024-02-26T05:38:53;7.63;;;1.58;;
26407;SDS011;14583;43.604;1.364;2024-02-26T05:41:19;7.50;;;1.75;;
26407;SDS011;14583;43.604;1.364;2024-02-26T05:43:51;7.65;;;1.92;;
26407;SDS011;14583;43.604;1.364;2024-02-26T05:46:18;6.05;;;1.25;;
26407;SDS011;14583;43.604;1.364;2024-02-26T05:48:44;6.43;;;1.50;;
26407;SDS011;14583;43.604;1.364;2024-02-26T05:51:11;7.63;;;1.50;;
26407;SDS011;14583;43.604;1.364;2024-02-26T05:53:37;6.80;;;1.52;;
26407;SDS011;14583;43.604;1.364;2024-02-26T05:56:03;5.43;;;1.65;;
26407;SDS011;14583;43.604;1.364;2024-02-26T05:58:29;7.38;;;1.52;;
26407;SDS011;14583;43.604;1.364;2024-02-26T06:00:54;6.20;;;1.60;;
26407;SDS011;14583;43.604;1.364;2024-02-26T06:03:20;8.35;;;1.67;;
26407;SDS011;14583;43.604;1.364;2024-02-26T06:05:46;7.30;;;1.40;;
26407;SDS011;14583;43.604;1.364;2024-02-26T06:08:12;8.95;;;1.70;;
26407;SDS011;14583;43.604;1.364;2024-02-26T06:10:38;8.48;;;1.90;;
26407;SDS011;14583;43.604;1.364;2024-02-26T06:13:04;7.57;;;1.75;;
26407;SDS011;14583;43.604;1.364;2024-02-26T06:15:30;5.53;;;1.40;;
26407;SDS011;14583;43.604;1.364;2024-02-26T06:17:56;6.60;;;1.85;;
26407;SDS011;14583;43.604;1.364;2024-02-26T06:20:21;7.70;;;1.50;;
26407;SDS011;14583;43.604;1.364;2024-02-26T06:22:51;7.10;;;1.48;;
26407;SDS011;14583;43.604;1.364;2024-02-26T06:25:16;5.95;;;1.77;;
26407;SDS011;14583;43.604;1.364;2024-02-26T06:27:42;7.15;;;1.90;;
26407;SDS011;14583;43.604;1.364;2024-02-26T06:30:08;7.18;;;1.80;;
26407;SDS011;14583;43.604;1.364;2024-02-26T06:32:36;7.40;;;1.70;;
26407;SDS011;14583;43.604;1.364;2024-02-26T06:35:05;7.22;;;1.90;;
26407;SDS011;14583;43.604;1.364;2024-02-26T06:37:33;7.80;;;1.60;;
26407;SDS011;14583;43.604;1.364;2024-02-26T06:39:59;5.95;;;1.58;;
26407;SDS011;14583;43.604;1.364;2024-02-26T06:42:25;9.50;;;1.45;;
26407;SDS011;14583;43.604;1.364;2024-02-26T06:44:51;6.85;;;1.65;;
26407;SDS011;14583;43.604;1.364;2024-02-26T06:47:16;5.80;;;1.60;;
26407;SDS011;14583;43.604;1.364;2024-02-26T06:49:42;5.13;;;1.45;;
26407;SDS011;14583;43.604;1.364;2024-02-26T06:52:09;8.95;;;1.83;;
26407;SDS011;14583;43.604;1.364;2024-02-26T06:54:34;5.10;;;1.50;;
26407;SDS011;14583;43.604;1.364;2024-02-26T06:57:00;6.55;;;1.58;;
26407;SDS011;14583;43.604;1.364;2024-02-26T06:59:26;7.40;;;1.30;;
26407;SDS011;14583;43.604;1.364;2024-02-26T07:01:51;6.47;;;1.50;;
26407;SDS011;14583;43.604;1.364;2024-02-26T07:04:17;7.45;;;1.75;;
26407;SDS011;14583;43.604;1.364;2024-02-26T07:06:43;6.22;;;1.33;;
26407;SDS011;14583;43.604;1.364;2024-02-26T07:09:08;7.38;;;1.80;;
26407;SDS011;14583;43.604;1.364;2024-02-26T07:11:34;6.95;;;1.63;;
26407;SDS011;14583;43.604;1.364;2024-02-26T07:14:00;9.07;;;1.65;;
26407;SDS011;14583;43.604;1.364;2024-02-26T07:16:26;3.13;;;1.30;;
26407;SDS011;14583;43.604;1.364;2024-02-26T07:18:52;10.10;;;1.98;;
26407;SDS011;14583;43.604;1.364;2024-02-26T07:21:17;7.75;;;1.70;;
26407;SDS011;14583;43.604;1.364;2024-02-26T07:23:43;6.53;;;1.30;;
26407;SDS011;14583;43.604;1.364;2024-02-26T07:26:09;4.97;;;1.63;;
26407;SDS011;14583;43.604;1.364;2024-02-26T07:28:36;8.23;;;1.70;;
26407;SDS011;14583;43.604;1.364;2024-02-26T07:31:02;4.15;;;1.30;;
26407;SDS011;14583;43.604;1.364;2024-02-26T07:33:28;5.05;;;1.35;;
26407;SDS011;14583;43.604;1.364;2024-02-26T07:35:54;4.75;;;1.30;;
26407;SDS011;14583;43.604;1.364;2024-02-26T07:38:20;9.75;;;1.70;;
26407;SDS011;14583;43.604;1.364;2024-02-26T07:40:45;6.75;;;1.75;;
26407;SDS011;14583;43.604;1.364;2024-02-26T07:43:11;6.25;;;1.75;;
26407;SDS011;14583;43.604;1.364;2024-02-26T07:45:37;13.23;;;1.92;;
26407;SDS011;14583;43.604;1.364;2024-02-26T07:48:03;7.53;;;1.75;;
26407;SDS011;14583;43.604;1.364;2024-02-26T07:50:28;7.38;;;1.83;;
26407;SDS011;14583;43.604;1.364;2024-02-26T07:52:54;7.30;;;1.75;;
26407;SDS011;14583;43.604;1.364;2024-02-26T07:55:20;6.47;;;1.77;;
26407;SDS011;14583;43.604;1.364;2024-02-26T07:57:47;5.35;;;1.52;;
26407;SDS011;14583;43.604;1.364;2024-02-26T08:00:13;11.25;;;2.42;;
26407;SDS011;14583;43.604;1.364;2024-02-26T08:02:41;10.90;;;2.03;;
26407;SDS011;14583;43.604;1.364;2024-02-26T08:05:08;8.13;;;1.83;;
26407;SDS011;14583;43.604;1.364;2024-02-26T08:07:34;12.50;;;2.00;;
26407;SDS011;14583;43.604;1.364;2024-02-26T08:09:59;8.30;;;1.90;;
26407;SDS011;14583;43.604;1.364;2024-02-26T08:12:25;8.13;;;2.00;;
26407;SDS011;14583;43.604;1.364;2024-02-26T08:14:51;10.90;;;2.17;;
26407;SDS011;14583;43.604;1.364;2024-02-26T08:17:16;9.45;;;2.10;;
26407;SDS011;14583;43.604;1.364;2024-02-26T08:19:42;14.40;;;2.88;;
26407;SDS011;14583;43.604;1.364;2024-02-26T08:22:08;8.65;;;2.03;;
26407;SDS011;14583;43.604;1.364;2024-02-26T08:24:35;9.55;;;2.03;;
26407;SDS011;14583;43.604;1.364;2024-02-26T08:27:01;14.73;;;2.40;;
26407;SDS011;14583;43.604;1.364;2024-02-26T08:29:27;8.52;;;2.00;;
26407;SDS011;14583;43.604;1.364;2024-02-26T08:31:53;9.90;;;2.28;;
26407;SDS011;14583;43.604;1.364;2024-02-26T08:34:18;10.30;;;2.47;;
26407;SDS011;14583;43.604;1.364;2024-02-26T08:36:44;12.85;;;2.13;;
26407;SDS011;14583;43.604;1.364;2024-02-26T08:39:10;13.27;;;2.25;;
26407;SDS011;14583;43.604;1.364;2024-02-26T08:41:38;10.05;;;2.30;;
26407;SDS011;14583;43.604;1.364;2024-02-26T08:44:04;15.05;;;2.88;;
26407;SDS011;14583;43.604;1.364;2024-02-26T08:46:29;12.73;;;2.40;;
26407;SDS011;14583;43.604;1.364;2024-02-26T08:48:55;14.30;;;2.38;;
26407;SDS011;14583;43.604;1.364;2024-02-26T08:51:21;10.73;;;2.05;;
26407;SDS011;14583;43.604;1.364;2024-02-26T08:53:46;12.57;;;1.90;;
26407;SDS011;14583;43.604;1.364;2024-02-26T08:56:12;13.90;;;2.35;;
26407;SDS011;14583;43.604;1.364;2024-02-26T08:58:41;7.22;;;1.50;;
26407;SDS011;14583;43.604;1.364;2024-02-26T09:01:13;8.43;;;2.20;;
26407;SDS011;14583;43.604;1.364;2024-02-26T09:03:41;10.45;;;2.53;;
26407;SDS011;14583;43.604;1.364;2024-02-26T09:06:07;7.43;;;2.28;;
26407;SDS011;14583;43.604;1.364;2024-02-26T09:08:33;10.30;;;2.22;;
26407;SDS011;14583;43.604;1.364;2024-02-26T09:11:01;13.05;;;2.50;;
26407;SDS011;14583;43.604;1.364;2024-02-26T09:13:26;7.82;;;2.45;;
26407;SDS011;14583;43.604;1.364;2024-02-26T09:15:52;11.43;;;2.20;;
26407;SDS011;14583;43.604;1.364;2024-02-26T09:18:18;19.80;;;3.90;;
26407;SDS011;14583;43.604;1.364;2024-02-26T09:20:43;12.20;;;3.85;;
26407;SDS011;14583;43.604;1.364;2024-02-26T09:23:09;17.73;;;3.50;;
26407;SDS011;14583;43.604;1.364;2024-02-26T09:25:34;16.08;;;3.42;;
26407;SDS011;14583;43.604;1.364;2024-02-26T09:28:01;12.07;;;1.80;;
26407;SDS011;14583;43.604;1.364;2024-02-26T09:30:26;12.18;;;1.77;;
26407;SDS011;14583;43.604;1.364;2024-02-26T09:32:52;8.65;;;1.73;;
26407;SDS011;14583;43.604;1.364;2024-02-26T09:35:17;7.38;;;1.80;;
26407;SDS011;14583;43.604;1.364;2024-02-26T09:37:43;8.23;;;1.83;;
26407;SDS011;14583;43.604;1.364;2024-02-26T09:40:09;11.45;;;2.08;;
26407;SDS011;14583;43.604;1.364;2024-02-26T09:42:41;10.25;;;2.60;;
26407;SDS011;14583;43.604;1.364;2024-02-26T09:45:10;10.02;;;1.70;;
26407;SDS011;14583;43.604;1.364;2024-02-26T09:47:42;9.35;;;2.30;;
26407;SDS011;14583;43.604;1.364;2024-02-26T09:50:08;6.70;;;1.60;;
26407;SDS011;14583;43.604;1.364;2024-02-26T09:52:37;6.68;;;1.60;;
26407;SDS011;14583;43.604;1.364;2024-02-26T09:55:04;10.38;;;1.92;;
26407;SDS011;14583;43.604;1.364;2024-02-26T09:57:30;9.70;;;1.85;;
26407;SDS011;14583;43.604;1.364;2024-02-26T09:59:58;9.27;;;2.00;;
26407;SDS011;14583;43.604;1.364;2024-02-26T10:02:28;4.75;;;1.75;;
26407;SDS011;14583;43.604;1.364;2024-02-26T10:04:55;9.52;;;1.50;;
26407;SDS011;14583;43.604;1.364;2024-02-26T10:07:26;5.05;;;1.30;;
26407;SDS011;14583;43.604;1.364;2024-02-26T10:09:54;5.63;;;1.40;;
26407;SDS011;14583;43.604;1.364;2024-02-26T10:12:22;6.18;;;1.40;;
26407;SDS011;14583;43.604;1.364;2024-02-26T10:14:50;7.22;;;2.13;;
26407;SDS011;14583;43.604;1.364;2024-02-26T10:17:16;7.68;;;1.90;;
26407;SDS011;14583;43.604;1.364;2024-02-26T10:19:43;6.53;;;1.70;;
26407;SDS011;14583;43.604;1.364;2024-02-26T10:22:09;7.25;;;1.92;;
26407;SDS011;14583;43.604;1.364;2024-02-26T10:24:35;5.57;;;1.70;;
26407;SDS011;14583;43.604;1.364;2024-02-26T10:27:01;11.23;;;1.70;;
26407;SDS011;14583;43.604;1.364;2024-02-26T10:29:27;9.50;;;2.53;;
26407;SDS011;14583;43.604;1.364;2024-02-26T10:31:53;8.70;;;2.15;;
26407;SDS011;14583;43.604;1.364;2024-02-26T10:34:19;11.50;;;2.00;;
26407;SDS011;14583;43.604;1.364;2024-02-26T10:36:45;8.35;;;2.17;;
26407;SDS011;14583;43.604;1.364;2024-02-26T10:39:14;6.85;;;2.08;;
26407;SDS011;14583;43.604;1.364;2024-02-26T10:41:41;10.02;;;2.03;;
26407;SDS011;14583;43.604;1.364;2024-02-26T10:44:10;6.55;;;1.73;;
26407;SDS011;14583;43.604;1.364;2024-02-26T10:46:41;6.82;;;1.80;;
26407;SDS011;14583;43.604;1.364;2024-02-26T10:49:14;7.35;;;1.58;;
26407;SDS011;14583;43.604;1.364;2024-02-26T10:51:43;6.95;;;1.75;;
26407;SDS011;14583;43.604;1.364;2024-02-26T10:54:11;5.63;;;1.60;;
26407;SDS011;14583;43.604;1.364;2024-02-26T10:56:41;8.68;;;2.10;;
26407;SDS011;14583;43.604;1.364;2024-02-26T10:59:09;8.32;;;1.65;;
26407;SDS011;14583;43.604;1.364;2024-02-26T11:01:38;6.30;;;1.70;;
26407;SDS011;14583;43.604;1.364;2024-02-26T11:04:06;5.13;;;1.40;;
26407;SDS011;14583;43.604;1.364;2024-02-26T11:06:33;7.82;;;1.50;;
26407;SDS011;14583;43.604;1.364;2024-02-26T11:09:00;9.73;;;2.10;;
26407;SDS011;14583;43.604;1.364;2024-02-26T11:11:27;10.60;;;1.65;;
26407;SDS011;14583;43.604;1.364;2024-02-26T11:13:54;5.93;;;2.20;;
26407;SDS011;14583;43.604;1.364;2024-02-26T11:16:22;8.77;;;1.80;;
26407;SDS011;14583;43.604;1.364;2024-02-26T11:18:50;6.43;;;1.45;;
26407;SDS011;14583;43.604;1.364;2024-02-26T11:21:20;4.72;;;1.67;;
26407;SDS011;14583;43.604;1.364;2024-02-26T11:23:55;5.85;;;1.63;;
26407;SDS011;14583;43.604;1.364;2024-02-26T11:26:21;3.97;;;1.08;;
26407;SDS011;14583;43.604;1.364;2024-02-26T11:28:49;4.05;;;1.20;;
26407;SDS011;14583;43.604;1.364;2024-02-26T11:31:16;5.30;;;1.77;;
26407;SDS011;14583;43.604;1.364;2024-02-26T11:33:45;4.60;;;1.40;;
26407;SDS011;14583;43.604;1.364;2024-02-26T11:36:12;3.13;;;1.17;;
26407;SDS011;14583;43.604;1.364;2024-02-26T11:38:39;5.63;;;1.33;;
26407;SDS011;14583;43.604;1.364;2024-02-26T11:41:05;5.43;;;1.42;;
26407;SDS011;14583;43.604;1.364;2024-02-26T11:51:54;8.48;;;1.30;;
26407;SDS011;14583;43.604;1.364;2024-02-26T11:57:19;4.47;;;1.55;;
26407;SDS011;14583;43.604;1.364;2024-02-26T11:59:46;4.05;;;1.30;;
26407;SDS011;14583;43.604;1.364;2024-02-26T12:02:19;5.47;;;1.10;;
26407;SDS011;14583;43.604;1.364;2024-02-26T12:05:20;3.30;;;0.90;;
26407;SDS011;14583;43.604;1.364;2024-02-26T12:07:55;4.63;;;1.05;;
26407;SDS011;14583;43.604;1.364;2024-02-26T12:10:38;4.30;;;1.17;;
26407;SDS011;14583;43.604;1.364;2024-02-26T12:13:11;4.78;;;1.00;;
26407;SDS011;14583;43.604;1.364;2024-02-26T12:15:42;5.05;;;1.20;;
26407;SDS011;14583;43.604;1.364;2024-02-26T12:18:09;5.55;;;1.40;;
26407;SDS011;14583;43.604;1.364;2024-02-26T12:20:40;2.83;;;1.40;;
26407;SDS011;14583;43.604;1.364;2024-02-26T12:23:06;2.75;;;1.30;;
26407;SDS011;14583;43.604;1.364;2024-02-26T12:25:32;4.32;;;1.13;;
26407;SDS011;14583;43.604;1.364;2024-02-26T12:27:58;6.28;;;1.40;;
26407;SDS011;14583;43.604;1.364;2024-02-26T12:30:25;3.65;;;1.00;;
26407;SDS011;14583;43.604;1.364;2024-02-26T12:32:52;6.40;;;1.10;;
26407;SDS011;14583;43.604;1.364;2024-02-26T12:35:22;1.40;;;0.73;;
26407;SDS011;14583;43.604;1.364;2024-02-26T12:37:48;6.57;;;1.40;;
26407;SDS011;14583;43.604;1.364;2024-02-26T12:40:16;3.63;;;1.08;;
26407;SDS011;14583;43.604;1.364;2024-02-26T12:42:42;4.13;;;1.10;;
26407;SDS011;14583;43.604;1.364;2024-02-26T12:45:10;7.65;;;1.50;;
26407;SDS011;14583;43.604;1.364;2024-02-26T12:47:37;3.42;;;1.20;;
26407;SDS011;14583;43.604;1.364;2024-02-26T12:50:10;3.80;;;1.40;;
26407;SDS011;14583;43.604;1.364;2024-02-26T12:52:38;2.85;;;1.08;;
26407;SDS011;14583;43.604;1.364;2024-02-26T12:55:06;4.30;;;1.10;;
26407;SDS011;14583;43.604;1.364;2024-02-26T12:57:38;3.83;;;1.30;;
26407;SDS011;14583;43.604;1.364;2024-02-26T13:00:05;2.63;;;1.02;;
26407;SDS011;14583;43.604;1.364;2024-02-26T13:02:34;6.15;;;1.10;;
26407;SDS011;14583;43.604;1.364;2024-02-26T13:05:02;2.55;;;1.00;;
26407;SDS011;14583;43.604;1.364;2024-02-26T13:07:29;5.38;;;0.93;;
26407;SDS011;14583;43.604;1.364;2024-02-26T13:09:55;3.78;;;1.00;;
26407;SDS011;14583;43.604;1.364;2024-02-26T13:12:20;5.45;;;1.58;;
26407;SDS011;14583;43.604;1.364;2024-02-26T13:14:47;4.88;;;1.00;;
26407;SDS011;14583;43.604;1.364;2024-02-26T13:17:12;6.00;;;1.17;;
26407;SDS011;14583;43.604;1.364;2024-02-26T13:19:48;4.00;;;1.00;;
26407;SDS011;14583;43.604;1.364;2024-02-26T13:22:15;3.75;;;1.00;;
26407;SDS011;14583;43.604;1.364;2024-02-26T13:24:41;2.83;;;1.05;;
26407;SDS011;14583;43.604;1.364;2024-02-26T13:27:07;4.55;;;1.10;;
26407;SDS011;14583;43.604;1.364;2024-02-26T13:29:33;0.65;;;0.57;;
26407;SDS011;14583;43.604;1.364;2024-02-26T13:31:59;2.28;;;0.90;;
26407;SDS011;14583;43.604;1.364;2024-02-26T13:34:25;2.25;;;1.02;;
26407;SDS011;14583;43.604;1.364;2024-02-26T13:36:52;2.42;;;0.77;;
26407;SDS011;14583;43.604;1.364;2024-02-26T13:39:25;2.50;;;0.90;;
26407;SDS011;14583;43.604;1.364;2024-02-26T13:41:52;4.63;;;1.20;;
26407;SDS011;14583;43.604;1.364;2024-02-26T13:44:19;1.70;;;0.95;;
26407;SDS011;14583;43.604;1.364;2024-02-26T13:46:45;2.28;;;0.77;;
26407;SDS011;14583;43.604;1.364;2024-02-26T13:49:14;2.05;;;0.80;;
26407;SDS011;14583;43.604;1.364;2024-02-26T13:51:40;4.15;;;1.00;;
26407;SDS011;14583;43.604;1.364;2024-02-26T13:54:06;3.10;;;1.08;;
26407;SDS011;14583;43.604;1.364;2024-02-26T13:56:32;3.08;;;1.13;;
26407;SDS011;14583;43.604;1.364;2024-02-26T13:58:59;2.88;;;0.98;;
26407;SDS011;14583;43.604;1.364;2024-02-26T14:01:25;2.35;;;0.80;;
26407;SDS011;14583;43.604;1.364;2024-02-26T14:03:51;3.38;;;1.02;;
26407;SDS011;14583;43.604;1.364;2024-02-26T14:06:20;3.65;;;1.17;;
26407;SDS011;14583;43.604;1.364;2024-02-26T14:08:45;2.22;;;0.60;;
26407;SDS011;14583;43.604;1.364;2024-02-26T14:11:11;3.88;;;0.90;;
26407;SDS011;14583;43.604;1.364;2024-02-26T14:13:37;3.83;;;1.00;;
26407;SDS011;14583;43.604;1.364;2024-02-26T14:16:02;4.63;;;0.82;;
26407;SDS011;14583;43.604;1.364;2024-02-26T14:18:28;2.00;;;0.68;;
26407;SDS011;14583;43.604;1.364;2024-02-26T14:20:54;1.35;;;0.68;;
26407;SDS011;14583;43.604;1.364;2024-02-26T14:23:20;3.60;;;1.13;;
26407;SDS011;14583;43.604;1.364;2024-02-26T14:25:45;3.33;;;0.90;;
26407;SDS011;14583;43.604;1.364;2024-02-26T14:28:11;4.13;;;1.02;;
26407;SDS011;14583;43.604;1.364;2024-02-26T14:30:36;4.80;;;0.85;;
26407;SDS011;14583;43.604;1.364;2024-02-26T14:33:02;4.53;;;1.00;;
26407;SDS011;14583;43.604;1.364;2024-02-26T14:35:28;1.58;;;0.82;;
26407;SDS011;14583;43.604;1.364;2024-02-26T14:37:53;2.58;;;0.90;;
26407;SDS011;14583;43.604;1.364;2024-02-26T14:40:20;2.08;;;0.80;;
26407;SDS011;14583;43.604;1.364;2024-02-26T14:42:46;2.05;;;0.52;;
26407;SDS011;14583;43.604;1.364;2024-02-26T14:45:12;2.05;;;0.80;;
26407;SDS011;14583;43.604;1.364;2024-02-26T14:47:37;4.75;;;0.95;;
26407;SDS011;14583;43.604;1.364;2024-02-26T14:50:04;7.63;;;1.30;;
26407;SDS011;14583;43.604;1.364;2024-02-26T14:52:29;4.03;;;0.90;;